Time;durP1;ratioP1;P1;durP2;ratioP2;P2;SDS_P1;SDS_P2;PMS_P1;PMS_P2;Temp;Humidity;BMP_temperature;BMP_pressure;BME280_temperature;BME280_humidity;BME280_pressure;Samples;Min_cycle;Max_cycle;Signal;HPM_P1;HPM_P2
2022/06/21 00:00:05;;;;;;;14.65;8.00;;;;;;;18.62;83.22;94374.88;4955332;28;20205;-80
2022/06/21 00:02:46;;;;;;;14.40;8.38;;;;;;;18.61;83.43;94373.31;4958742;28;20571;-81
2022/06/21 00:05:30;;;;;;;17.15;8.95;;;;;;;18.62;83.73;94382.75;4960714;28;20205;-81
2022/06/21 00:08:07;;;;;;;16.45;8.00;;;;;;;18.61;82.61;94383.84;4966371;28;20213;-86
2022/06/21 00:10:45;;;;;;;15.85;8.90;;;;;;;18.60;81.46;94384.91;4965253;28;20250;-85
2022/06/21 00:13:15;;;;;;;16.50;8.18;;;;;;;18.58;81.87;94379.13;4960668;28;20209;-84
2022/06/21 00:15:51;;;;;;;15.27;7.95;;;;;;;18.47;83.67;94377.59;4962562;28;20263;-82
2022/06/21 00:18:26;;;;;;;11.70;7.90;;;;;;;18.35;83.77;94374.50;4957986;28;20212;-82
2022/06/21 00:21:03;;;;;;;16.27;8.77;;;;;;;18.26;85.55;94379.56;4958693;28;20294;-83
2022/06/21 00:23:36;;;;;;;15.60;8.50;;;;;;;18.11;86.60;94384.88;4954441;28;20223;-82
2022/06/21 00:26:11;;;;;;;15.35;7.40;;;;;;;18.02;84.73;94382.03;4963751;28;20196;-84
2022/06/21 00:28:43;;;;;;;18.15;7.50;;;;;;;18.04;84.73;94369.41;4955492;28;20211;-86
2022/06/21 00:31:21;;;;;;;15.80;8.52;;;;;;;18.09;85.87;94368.59;4957315;28;20228;-87
2022/06/21 00:33:56;;;;;;;20.33;9.00;;;;;;;18.11;87.08;94367.28;4956902;28;20252;-89
2022/06/21 00:36:30;;;;;;;21.30;9.63;;;;;;;18.05;87.91;94349.16;4953701;28;20227;-90
2022/06/21 00:39:06;;;;;;;17.70;8.75;;;;;;;18.10;87.66;94368.31;4971325;28;20287;-90
2022/06/21 00:41:46;;;;;;;20.42;9.90;;;;;;;18.17;87.73;94375.13;4960778;28;20208;-90
2022/06/21 00:44:26;;;;;;;29.08;18.95;;;;;;;18.05;86.67;94357.81;4959174;28;20201;-90
2022/06/21 00:47:04;;;;;;;24.13;17.93;;;;;;;18.09;86.11;94372.00;4960127;28;20220;-89
2022/06/21 00:49:47;;;;;;;27.10;15.02;;;;;;;18.01;86.67;94380.47;4957788;28;20307;-90
2022/06/21 00:52:24;;;;;;;21.33;12.60;;;;;;;17.99;86.04;94379.16;4958952;28;20237;-90
2022/06/21 00:55:05;;;;;;;13.40;10.23;;;;;;;17.98;85.55;94373.09;4956634;28;20359;-88
2022/06/21 00:57:48;;;;;;;15.15;10.38;;;;;;;17.98;85.56;94369.69;4960531;28;20208;-87
2022/06/21 01:00:32;;;;;;;14.90;9.65;;;;;;;17.98;85.03;94370.47;4960741;28;20596;-91
2022/06/21 01:03:10;;;;;;;14.07;9.50;;;;;;;18.06;84.68;94372.56;4963458;28;20838;-90
2022/06/21 01:05:50;;;;;;;18.48;9.43;;;;;;;18.08;84.65;94375.69;4962523;28;20204;-88
2022/06/21 01:08:36;;;;;;;11.25;7.97;;;;;;;18.09;84.37;94365.97;4957265;28;20221;-90
2022/06/21 01:11:11;;;;;;;11.82;7.82;;;;;;;18.12;84.24;94371.44;4961561;28;20241;-91
2022/06/21 01:13:50;;;;;;;17.13;8.02;;;;;;;18.13;83.87;94373.03;4965954;28;20583;-93
2022/06/21 01:16:28;;;;;;;14.05;8.00;;;;;;;18.09;84.75;94363.34;4958435;28;20205;-91
2022/06/21 01:18:59;;;;;;;18.65;9.25;;;;;;;18.17;84.88;94373.28;4964369;28;20291;-91
2022/06/21 01:21:48;;;;;;;17.25;10.07;;;;;;;18.12;85.65;94374.09;4962727;28;20207;-86
2022/06/21 01:24:29;;;;;;;15.65;9.60;;;;;;;18.07;85.38;94378.59;4963772;28;20200;-89
2022/06/21 01:27:10;;;;;;;16.90;10.00;;;;;;;18.04;85.23;94379.13;4958463;28;20227;-89
2022/06/21 01:29:41;;;;;;;14.38;9.38;;;;;;;17.98;85.58;94370.47;4958145;28;20205;-84
2022/06/21 01:32:15;;;;;;;17.55;9.18;;;;;;;17.93;85.67;94378.41;4960402;28;20209;-92
2022/06/21 01:34:47;;;;;;;13.50;9.43;;;;;;;17.94;85.74;94381.81;4967709;28;20221;-91
2022/06/21 01:37:30;;;;;;;15.30;8.77;;;;;;;17.94;86.08;94387.06;4980434;28;20201;-89
2022/06/21 01:40:13;;;;;;;14.75;8.27;;;;;;;17.93;85.47;94380.22;4966422;28;20207;-86
2022/06/21 01:42:52;;;;;;;12.80;7.67;;;;;;;17.85;85.31;94375.53;4963746;28;20239;-89
2022/06/21 01:45:30;;;;;;;13.17;7.97;;;;;;;17.79;86.01;94372.16;4972579;28;20219;-88
2022/06/21 01:48:09;;;;;;;13.88;7.38;;;;;;;17.64;86.56;94358.25;4967165;28;20231;-89
2022/06/21 01:50:47;;;;;;;12.77;6.83;;;;;;;17.67;86.95;94376.91;4958323;28;20236;-88
2022/06/21 01:53:23;;;;;;;12.30;7.35;;;;;;;17.66;86.64;94379.81;4957007;28;20212;-88
2022/06/21 01:56:04;;;;;;;11.10;7.50;;;;;;;17.54;87.15;94370.41;4965410;28;20596;-84
2022/06/21 01:58:51;;;;;;;11.53;7.70;;;;;;;17.61;87.31;94379.81;4966699;28;20314;-85
2022/06/21 02:01:31;;;;;;;12.75;7.45;;;;;;;17.54;87.26;94378.28;4965916;28;20261;-84
2022/06/21 02:04:09;;;;;;;10.03;7.00;;;;;;;17.36;88.09;94360.44;4967139;28;20208;-84
2022/06/21 02:06:47;;;;;;;11.27;6.83;;;;;;;17.55;87.54;94385.09;4966324;28;20640;-84
2022/06/21 02:09:28;;;;;;;12.50;7.53;;;;;;;17.57;86.66;94382.22;4961083;28;20216;-83
2022/06/21 02:12:09;;;;;;;13.15;7.45;;;;;;;17.57;87.27;94379.59;4960844;28;20562;-84
2022/06/21 02:14:52;;;;;;;12.97;7.13;;;;;;;17.47;88.08;94379.56;4960015;28;20209;-85
2022/06/21 02:17:34;;;;;;;12.93;7.10;;;;;;;17.48;87.80;94387.22;4959471;28;20213;-85
2022/06/21 02:20:16;;;;;;;11.40;7.37;;;;;;;17.47;88.22;94387.47;4959727;28;20224;-84
2022/06/21 02:22:54;;;;;;;13.03;7.17;;;;;;;17.48;88.24;94386.41;4966287;28;20303;-85
2022/06/21 02:25:29;;;;;;;12.60;6.87;;;;;;;17.49;88.68;94380.09;4960338;28;20205;-88
2022/06/21 02:28:09;;;;;;;15.93;8.77;;;;;;;17.42;89.58;94364.63;4958719;28;20205;-87
2022/06/21 02:30:49;;;;;;;12.07;7.80;;;;;;;17.42;89.78;94371.72;4959326;28;20213;-88
2022/06/21 02:33:29;;;;;;;12.50;7.37;;;;;;;17.41;90.28;94367.50;4959588;28;20586;-87
2022/06/21 02:36:05;;;;;;;11.10;7.33;;;;;;;17.33;90.45;94370.69;4960744;28;20968;-87
2022/06/21 02:38:41;;;;;;;13.20;7.93;;;;;;;17.28;90.45;94362.81;4962668;28;20211;-84
2022/06/21 02:41:16;;;;;;;9.70;7.17;;;;;;;17.28;89.95;94365.44;4962911;28;20213;-83
2022/06/21 02:43:52;;;;;;;11.47;6.97;;;;;;;17.16;89.79;94357.06;4959603;28;20228;-82
2022/06/21 02:46:34;;;;;;;10.90;7.60;;;;;;;17.21;90.18;94372.81;4962919;28;20719;-87
2022/06/21 02:49:17;;;;;;;9.97;7.20;;;;;;;17.17;90.21;94358.66;4968274;28;20625;-91
2022/06/21 02:51:56;;;;;;;10.70;6.87;;;;;;;17.18;90.29;94358.38;4962450;28;20303;-87
2022/06/21 02:54:39;;;;;;;9.97;7.43;;;;;;;17.15;91.49;94368.59;4965664;28;20312;-88
2022/06/21 02:57:18;;;;;;;9.70;6.53;;;;;;;17.13;90.53;94358.38;4966716;28;20208;-89
2022/06/21 02:59:51;;;;;;;17.87;7.27;;;;;;;17.17;90.30;94361.28;4962387;28;20216;-88
2022/06/21 03:02:35;;;;;;;11.80;6.80;;;;;;;17.22;90.65;94369.13;4960880;28;21468;-90
2022/06/21 03:05:19;;;;;;;13.67;7.53;;;;;;;17.18;91.02;94363.63;4964624;28;20216;-88
2022/06/21 03:08:00;;;;;;;18.73;7.87;;;;;;;17.20;91.49;94353.63;4965248;28;20325;-88
2022/06/21 03:10:33;;;;;;;14.93;7.70;;;;;;;17.18;91.07;94349.69;4965741;28;20232;-88
2022/06/21 03:13:15;;;;;;;15.60;7.63;;;;;;;17.22;91.39;94356.00;4957063;28;20723;-84
2022/06/21 03:15:48;;;;;;;23.30;8.80;;;;;;;17.22;90.31;94358.63;4964377;28;20224;-84
2022/06/21 03:18:27;;;;;;;20.73;10.13;;;;;;;17.15;90.63;94352.84;4957052;28;20300;-89
2022/06/21 03:21:07;;;;;;;22.67;9.90;;;;;;;17.07;90.92;94335.00;4959364;28;20235;-89
2022/06/21 03:23:44;;;;;;;17.93;8.93;;;;;;;17.10;91.59;94348.41;4962389;28;20675;-89
2022/06/21 03:26:24;;;;;;;16.33;8.93;;;;;;;17.16;91.53;94343.94;4966399;28;20734;-90
2022/06/21 03:28:59;;;;;;;15.47;9.03;;;;;;;17.22;91.17;94350.75;4959924;28;20228;-89
2022/06/21 03:31:41;;;;;;;19.90;9.30;;;;;;;17.20;91.01;94350.25;4963829;28;20220;-86
2022/06/21 03:34:26;;;;;;;21.23;9.37;;;;;;;17.17;90.63;94351.53;4954731;28;20205;-77
2022/06/21 03:37:02;;;;;;;18.83;8.70;;;;;;;17.22;90.98;94348.13;4962599;28;20209;-77
2022/06/21 03:42:31;;;;;;;20.03;7.90;;;;;;;17.32;90.63;94354.13;4914207;28;20201;-76
2022/06/21 03:45:09;;;;;;;14.87;7.90;;;;;;;17.31;90.13;94352.56;4960441;28;20205;-77
2022/06/21 03:47:47;;;;;;;12.20;6.67;;;;;;;17.40;90.13;94366.72;4961079;28;20212;-76
2022/06/21 03:50:29;;;;;;;11.33;7.20;;;;;;;17.43;89.73;94368.03;4961874;28;20214;-77
2022/06/21 03:53:12;;;;;;;10.50;6.60;;;;;;;17.34;89.46;94365.19;4957399;28;20659;-77
2022/06/21 03:55:58;;;;;;;10.60;6.90;;;;;;;17.28;89.75;94376.75;4946272;29;20209;-77
2022/06/21 03:58:33;;;;;;;12.13;6.93;;;;;;;17.25;90.10;94371.22;4943959;29;20665;-76
2022/06/21 04:01:08;;;;;;;10.50;6.60;;;;;;;17.06;90.98;94376.25;4946532;29;20205;-76
2022/06/21 04:03:45;;;;;;;11.90;6.80;;;;;;;17.07;91.58;94372.56;4944671;29;20284;-77
2022/06/21 04:06:25;;;;;;;11.30;7.47;;;;;;;17.16;91.68;94365.72;4946623;29;20205;-76
2022/06/21 04:09:14;;;;;;;11.97;7.30;;;;;;;17.11;91.86;94372.84;4945758;29;20279;-76
2022/06/21 04:11:53;;;;;;;12.50;7.20;;;;;;;17.18;91.16;94355.75;4944160;29;21310;-76
2022/06/21 04:14:33;;;;;;;9.90;7.63;;;;;;;17.27;90.99;94359.41;4949150;29;21188;-76
2022/06/21 04:17:08;;;;;;;16.03;7.83;;;;;;;17.35;90.02;94358.84;4946976;28;20212;-75
2022/06/21 04:19:48;;;;;;;15.00;8.30;;;;;;;17.41;89.48;94357.00;4944828;29;20723;-76
2022/06/21 04:22:32;;;;;;;13.43;7.60;;;;;;;17.42;89.90;94354.13;4945509;29;20699;-76
2022/06/21 04:25:12;;;;;;;18.43;7.80;;;;;;;17.44;89.26;94362.50;4945875;29;20236;-77
2022/06/21 04:27:53;;;;;;;13.33;8.33;;;;;;;17.47;89.68;94355.94;4944011;29;20303;-76
2022/06/21 04:30:32;;;;;;;13.07;8.07;;;;;;;17.43;89.34;94339.16;4947013;29;20241;-77
2022/06/21 04:33:08;;;;;;;17.95;9.00;;;;;;;17.55;88.55;94352.78;4947888;29;20212;-76
2022/06/21 04:35:38;;;;;;;18.10;8.80;;;;;;;17.51;89.49;94346.47;4943392;29;20209;-77
2022/06/21 04:38:21;;;;;;;12.53;8.50;;;;;;;17.59;89.25;94340.69;4943504;29;20212;-77
2022/06/21 04:41:00;;;;;;;16.90;8.80;;;;;;;17.65;89.13;94338.81;4944866;29;20209;-78
2022/06/21 04:43:38;;;;;;;13.80;8.73;;;;;;;17.68;89.33;94349.59;4944393;29;20637;-76
2022/06/21 04:46:13;;;;;;;13.90;9.27;;;;;;;17.69;89.75;94343.25;4947639;29;20216;-75
2022/06/21 04:48:51;;;;;;;16.10;9.93;;;;;;;17.74;90.07;94343.25;4946706;29;20205;-76
2022/06/21 04:51:39;;;;;;;13.13;9.00;;;;;;;17.72;90.00;94345.34;4945405;29;20229;-77
2022/06/21 04:54:21;;;;;;;14.77;8.87;;;;;;;17.74;90.15;94352.97;4945243;28;20731;-76
2022/06/21 04:57:10;;;;;;;12.17;8.70;;;;;;;17.73;90.03;94361.91;4959918;28;20309;-76
2022/06/21 04:59:46;;;;;;;16.07;8.63;;;;;;;17.74;90.58;94366.13;4959869;28;20304;-76
2022/06/21 05:02:25;;;;;;;18.93;8.60;;;;;;;17.73;90.28;94367.16;4963476;28;20258;-77
2022/06/21 05:05:04;;;;;;;11.37;8.30;;;;;;;17.75;89.63;94372.97;4966504;28;20220;-76
2022/06/21 05:07:41;;;;;;;12.67;7.73;;;;;;;17.83;89.69;94375.03;4964188;28;20785;-82
2022/06/21 05:10:22;;;;;;;12.03;8.17;;;;;;;17.89;89.00;94379.22;4955351;28;20220;-80
2022/06/21 05:13:00;;;;;;;11.68;7.43;;;;;;;17.91;89.04;94385.78;4954713;28;20234;-85
2022/06/21 05:15:38;;;;;;;12.83;7.70;;;;;;;17.98;88.63;94391.50;4953291;28;20213;-78
2022/06/21 05:18:15;;;;;;;11.93;7.65;;;;;;;17.99;87.46;94387.84;4955219;28;20204;-77
2022/06/21 05:20:52;;;;;;;9.73;7.30;;;;;;;18.06;86.58;94396.25;4961544;28;20767;-78
2022/06/21 05:23:30;;;;;;;10.98;6.60;;;;;;;18.15;85.36;94389.31;4961813;28;20759;-78
2022/06/21 05:26:10;;;;;;;12.43;7.00;;;;;;;18.22;84.37;94375.09;4961194;28;20214;-77
2022/06/21 05:28:46;;;;;;;13.23;8.07;;;;;;;18.18;85.09;94389.88;4957029;28;20212;-77
2022/06/21 05:31:25;;;;;;;13.93;7.65;;;;;;;18.18;85.64;94385.41;4965268;28;20259;-78
2022/06/21 05:34:04;;;;;;;9.18;7.28;;;;;;;18.28;85.07;94381.91;4966353;28;20219;-78
2022/06/21 05:36:42;;;;;;;10.65;7.45;;;;;;;18.32;83.31;94373.22;4966961;28;20223;-78
2022/06/21 05:39:22;;;;;;;13.57;7.57;;;;;;;18.34;83.08;94381.59;4964407;28;20262;-77
2022/06/21 05:42:05;;;;;;;27.60;8.35;;;;;;;18.29;83.68;94376.38;4961947;28;20227;-77
2022/06/21 05:44:45;;;;;;;15.60;8.25;;;;;;;18.35;83.91;94377.94;4969590;28;20197;-88
2022/06/21 05:47:27;;;;;;;16.35;7.70;;;;;;;18.46;84.25;94376.81;4968842;28;20755;-75
2022/06/21 05:50:03;;;;;;;11.40;7.38;;;;;;;18.53;84.60;94369.41;4964635;28;20208;-77
2022/06/21 05:52:38;;;;;;;13.68;8.57;;;;;;;18.55;85.57;94366.50;4966102;28;20232;-76
2022/06/21 05:55:20;;;;;;;15.00;7.70;;;;;;;18.51;86.60;94355.72;4960788;28;20264;-75
2022/06/21 05:58:03;;;;;;;9.65;8.02;;;;;;;18.57;87.57;94365.16;4961453;28;20232;-77
2022/06/21 06:00:48;;;;;;;14.20;7.85;;;;;;;18.66;87.46;94368.00;4960441;28;20839;-77
2022/06/21 06:03:28;;;;;;;10.85;8.07;;;;;;;18.74;86.48;94366.63;4962871;28;20196;-78
2022/06/21 06:06:09;;;;;;;18.45;7.95;;;;;;;18.82;85.51;94366.81;4960775;28;20221;-77
2022/06/21 06:08:47;;;;;;;13.68;7.75;;;;;;;18.93;85.23;94362.28;4964181;28;20214;-77
2022/06/21 06:11:25;;;;;;;8.82;7.50;;;;;;;19.01;85.10;94370.34;4968774;28;20303;-77
2022/06/21 06:14:06;;;;;;;10.85;7.85;;;;;;;19.04;84.69;94361.09;4964295;28;20209;-76
2022/06/21 06:16:41;;;;;;;12.10;7.82;;;;;;;19.16;85.32;94369.44;4959295;28;20224;-76
2022/06/21 06:19:23;;;;;;;13.38;7.40;;;;;;;19.23;85.47;94369.88;4963031;28;20216;-78
2022/06/21 06:21:59;;;;;;;17.58;8.25;;;;;;;19.29;86.12;94379.31;4962591;28;20205;-76
2022/06/21 06:24:37;;;;;;;17.77;8.13;;;;;;;19.34;85.79;94383.75;4964304;28;20578;-77
2022/06/21 06:27:22;;;;;;;13.15;7.85;;;;;;;19.44;85.61;94383.69;4967337;28;20267;-77
2022/06/21 06:30:06;;;;;;;15.75;7.75;;;;;;;19.48;85.20;94379.44;4961743;28;20208;-76
2022/06/21 06:32:45;;;;;;;12.32;7.85;;;;;;;19.60;84.40;94390.34;4956624;28;20265;-76
2022/06/21 06:35:24;;;;;;;12.95;8.18;;;;;;;19.70;83.49;94388.41;4959931;28;20204;-77
2022/06/21 06:38:03;;;;;;;12.45;8.52;;;;;;;19.83;82.43;94391.44;4961501;28;20766;-77
2022/06/21 06:40:44;;;;;;;15.73;8.25;;;;;;;19.81;81.56;94387.22;4959906;28;20221;-77
2022/06/21 06:43:29;;;;;;;11.48;7.95;;;;;;;19.91;81.28;94385.53;4968130;28;20574;-77
2022/06/21 06:46:09;;;;;;;11.70;7.18;;;;;;;19.96;81.39;94375.72;4962121;28;20205;-77
2022/06/21 06:48:42;;;;;;;17.58;7.88;;;;;;;20.03;81.78;94372.75;4959785;28;20695;-77
2022/06/21 06:51:46;;;;;;;11.48;7.75;;;;;;;20.12;81.93;94379.72;4959071;28;20243;-77
2022/06/21 06:54:32;;;;;;;12.48;7.13;;;;;;;20.21;82.84;94375.38;4959974;28;20267;-77
2022/06/21 06:57:12;;;;;;;9.50;7.10;;;;;;;20.29;82.98;94366.84;4959528;28;20637;-78
2022/06/21 06:59:42;;;;;;;15.55;7.90;;;;;;;20.47;83.20;94362.66;4953764;28;20217;-78
2022/06/21 07:02:20;;;;;;;15.23;6.90;;;;;;;20.62;83.51;94356.34;4966862;28;20336;-78
2022/06/21 07:04:58;;;;;;;14.32;7.15;;;;;;;20.79;82.81;94359.25;4960973;28;20213;-78
2022/06/21 07:07:36;;;;;;;14.32;7.03;;;;;;;20.95;83.28;94355.31;4963842;28;20291;-76
2022/06/21 07:10:13;;;;;;;9.20;6.75;;;;;;;21.16;83.50;94353.13;4963876;28;20243;-83
2022/06/21 07:12:45;;;;;;;12.57;6.40;;;;;;;21.32;83.70;94352.59;4962929;28;20217;-82
2022/06/21 07:15:20;;;;;;;10.88;7.13;;;;;;;21.48;83.54;94347.78;4961307;28;20300;-82
2022/06/21 07:18:00;;;;;;;15.57;6.95;;;;;;;21.65;83.04;94350.63;4969110;28;20200;-82
2022/06/21 07:20:41;;;;;;;13.25;6.55;;;;;;;21.82;81.08;94356.13;4963532;28;20263;-84
2022/06/21 07:23:21;;;;;;;13.30;6.15;;;;;;;22.00;80.12;94355.25;4956846;28;20308;-85
2022/06/21 07:26:01;;;;;;;11.07;6.63;;;;;;;22.14;79.10;94363.16;4959089;28;20759;-84
2022/06/21 07:28:39;;;;;;;10.93;6.90;;;;;;;22.39;76.04;94354.69;4962545;28;20207;-83
2022/06/21 07:31:15;;;;;;;10.55;6.05;;;;;;;22.53;74.64;94360.75;4964677;28;20315;-83
2022/06/21 07:33:56;;;;;;;7.88;5.60;;;;;;;22.99;66.34;94352.53;4967489;28;20212;-84
2022/06/21 07:36:34;;;;;;;10.25;5.22;;;;;;;23.23;65.07;94357.53;4963036;28;20637;-85
2022/06/21 07:39:09;;;;;;;10.07;5.13;;;;;;;23.54;63.10;94363.63;4963618;28;20246;-83
2022/06/21 07:41:46;;;;;;;8.45;5.55;;;;;;;23.73;61.85;94364.16;4963964;28;20228;-83
2022/06/21 07:44:30;;;;;;;10.65;5.10;;;;;;;23.82;61.36;94369.50;4961959;28;20205;-83
2022/06/21 07:47:08;;;;;;;8.30;4.90;;;;;;;23.83;61.63;94370.28;4958497;28;20208;-82
2022/06/21 07:49:49;;;;;;;9.80;5.68;;;;;;;24.04;61.94;94381.94;4960449;28;20640;-86
2022/06/21 07:52:27;;;;;;;9.35;5.22;;;;;;;24.24;61.74;94387.44;4964661;28;20232;-85
2022/06/21 07:55:02;;;;;;;6.85;5.85;;;;;;;24.29;62.04;94386.53;4962936;28;20236;-82
2022/06/21 07:57:38;;;;;;;8.98;5.43;;;;;;;24.47;60.42;94387.34;4955773;28;20204;-88
2022/06/21 08:00:15;;;;;;;8.90;5.45;;;;;;;24.59;60.99;94395.50;4958833;28;20200;-86
2022/06/21 08:08:35;;;;;;;8.88;5.70;;;;;;;24.79;60.99;94392.97;4964120;28;20204;-83
2022/06/21 08:11:11;;;;;;;11.40;7.13;;;;;;;24.83;61.53;94412.56;4961347;28;20200;-83
2022/06/21 08:13:44;;;;;;;9.88;6.97;;;;;;;24.75;61.43;94399.25;4954696;28;20276;-83
2022/06/21 08:16:20;;;;;;;16.80;7.15;;;;;;;24.78;60.60;94415.38;4961992;28;20685;-83
2022/06/21 08:18:54;;;;;;;17.15;7.35;;;;;;;24.73;61.07;94410.19;4962591;28;20205;-82
2022/06/21 08:21:31;;;;;;;15.30;7.45;;;;;;;24.82;61.68;94405.69;4962688;28;20217;-82
2022/06/21 08:24:07;;;;;;;12.65;7.30;;;;;;;24.97;61.42;94403.66;4964862;28;20208;-83
2022/06/21 08:26:41;;;;;;;10.75;7.18;;;;;;;25.05;62.13;94405.53;4958873;28;20590;-82
2022/06/21 08:29:13;;;;;;;14.93;7.13;;;;;;;25.17;61.95;94410.97;4958186;28;20212;-81
2022/06/21 08:31:47;;;;;;;16.90;7.15;;;;;;;25.33;60.60;94420.06;4961574;28;20215;-83
2022/06/21 08:34:26;;;;;;;14.05;7.20;;;;;;;25.42;60.09;94409.41;4959368;28;20275;-82
2022/06/21 08:37:09;;;;;;;15.48;7.38;;;;;;;25.34;60.83;94419.72;4963619;28;20307;-84
2022/06/21 08:39:48;;;;;;;11.82;7.65;;;;;;;25.35;61.55;94420.50;4962644;28;20204;-88
2022/06/21 08:42:49;;;;;;;11.70;7.32;;;;;;;25.31;61.80;94408.94;4962290;28;20205;-83
2022/06/21 08:46:11;;;;;;;13.35;7.82;;;;;;;25.27;61.94;94422.09;4960297;28;20686;-84
2022/06/21 08:49:20;;;;;;;16.98;8.30;;;;;;;25.32;63.48;94408.63;4954437;28;20212;-85
2022/06/21 08:52:20;;;;;;;14.77;8.50;;;;;;;25.50;62.90;94417.41;4962346;28;20212;-84
2022/06/21 08:55:07;;;;;;;15.73;8.45;;;;;;;25.62;62.89;94414.06;4960138;28;20263;-83
2022/06/21 08:57:47;;;;;;;12.13;8.35;;;;;;;25.53;62.52;94414.09;4959181;28;20663;-85
2022/06/21 09:00:33;;;;;;;14.63;8.18;;;;;;;25.49;62.67;94407.03;4961822;28;20226;-84
2022/06/21 09:03:17;;;;;;;13.82;9.25;;;;;;;25.47;64.07;94407.34;4956711;28;20212;-84
2022/06/21 09:06:00;;;;;;;18.67;8.88;;;;;;;25.57;63.47;94407.03;4959812;28;20668;-84
2022/06/21 09:08:56;;;;;;;14.70;9.00;;;;;;;25.63;62.83;94400.44;4964533;28;20591;-84
2022/06/21 09:11:38;;;;;;;16.15;9.40;;;;;;;25.66;62.86;94377.72;4951835;28;20288;-85
2022/06/21 09:14:41;;;;;;;12.50;8.95;;;;;;;25.75;62.74;94384.56;4958423;28;20343;-84
2022/06/21 09:17:17;;;;;;;19.92;8.63;;;;;;;25.81;62.96;94391.28;4961126;28;20977;-85
2022/06/21 09:20:11;;;;;;;21.58;8.85;;;;;;;25.85;63.13;94388.78;4960335;28;20667;-83
2022/06/21 09:22:55;;;;;;;19.25;9.15;;;;;;;25.91;63.83;94401.59;4957169;28;20213;-84
2022/06/21 09:25:51;;;;;;;10.73;8.48;;;;;;;25.99;63.29;94393.88;4957337;28;20235;-81
2022/06/21 09:28:38;;;;;;;12.13;8.73;;;;;;;25.89;63.62;94385.13;4958562;28;20400;-82
2022/06/21 09:31:14;;;;;;;16.38;9.07;;;;;;;25.95;62.79;94370.53;4962613;28;20208;-83
2022/06/21 09:33:52;;;;;;;13.77;9.23;;;;;;;26.10;62.79;94373.75;4960422;28;20673;-83
2022/06/21 09:36:28;;;;;;;13.73;9.30;;;;;;;26.06;62.97;94370.19;4959067;28;20455;-82
2022/06/21 09:39:09;;;;;;;12.93;9.43;;;;;;;26.24;63.01;94377.00;4963322;28;20267;-83
2022/06/21 09:41:54;;;;;;;13.77;9.63;;;;;;;26.42;62.29;94383.78;4961696;28;20197;-83
2022/06/21 09:44:32;;;;;;;12.65;8.65;;;;;;;26.44;62.12;94370.91;4960855;28;20221;-83
2022/06/21 09:47:10;;;;;;;13.32;9.05;;;;;;;26.44;61.56;94370.91;4960080;28;20205;-83
2022/06/21 09:49:53;;;;;;;14.57;9.05;;;;;;;26.47;62.11;94373.72;4958792;28;21218;-83
2022/06/21 09:52:35;;;;;;;19.20;9.98;;;;;;;26.60;62.80;94387.91;4959734;28;20236;-83
2022/06/21 09:55:19;;;;;;;17.30;9.75;;;;;;;26.66;60.69;94370.63;4960764;28;20239;-84
2022/06/21 09:58:03;;;;;;;17.00;10.25;;;;;;;26.82;60.57;94365.47;4958500;28;20204;-84
2022/06/21 10:00:43;;;;;;;13.23;9.30;;;;;;;26.95;60.42;94373.25;4963950;28;20206;-84
2022/06/21 10:03:30;;;;;;;18.17;8.80;;;;;;;26.88;59.95;94366.84;4965633;28;20200;-83
2022/06/21 10:06:12;;;;;;;13.05;8.55;;;;;;;26.75;58.39;94349.22;4962280;28;20755;-84
2022/06/21 10:09:00;;;;;;;14.32;9.00;;;;;;;26.86;59.63;94358.41;4961424;28;20565;-83
2022/06/21 10:11:46;;;;;;;11.45;8.40;;;;;;;27.09;58.90;94356.16;4961574;28;20215;-84
2022/06/21 10:14:53;;;;;;;11.77;7.93;;;;;;;27.24;58.39;94353.66;4959548;28;20232;-83
2022/06/21 10:17:48;;;;;;;14.73;8.75;;;;;;;27.47;56.62;94352.19;4970407;28;20291;-82
2022/06/21 10:20:46;;;;;;;17.92;9.45;;;;;;;27.62;57.13;94349.97;4974272;28;20332;-83
2022/06/21 10:23:39;;;;;;;9.75;8.05;;;;;;;27.85;56.26;94357.22;4966356;28;20200;-83
2022/06/21 10:26:35;;;;;;;11.80;8.02;;;;;;;27.81;54.31;94361.69;4968506;28;20295;-84
2022/06/21 10:29:30;;;;;;;12.40;7.95;;;;;;;27.84;56.02;94357.56;4962797;28;20205;-84
2022/06/21 10:32:24;;;;;;;12.95;8.15;;;;;;;28.07;54.84;94364.84;4966539;28;20241;-84
2022/06/21 10:35:21;;;;;;;16.30;8.25;;;;;;;28.14;53.63;94353.56;4967118;28;20239;-82
2022/06/21 10:38:05;;;;;;;21.63;8.43;;;;;;;27.85;54.40;94359.88;4967824;28;20312;-84
2022/06/21 10:40:48;;;;;;;9.25;7.78;;;;;;;27.64;55.68;94340.53;4963045;28;20208;-87
2022/06/21 10:43:51;;;;;;;13.75;8.02;;;;;;;27.80;56.23;94372.69;4962071;28;20590;-76
2022/06/21 10:46:37;;;;;;;13.77;8.23;;;;;;;28.02;54.63;94361.59;4960193;28;20218;-76
2022/06/21 10:49:41;;;;;;;11.80;8.00;;;;;;;28.28;55.45;94375.41;4961811;28;20220;-75
2022/06/21 10:52:33;;;;;;;12.02;8.27;;;;;;;28.57;52.30;94364.44;4949365;28;20210;-89
2022/06/21 10:55:34;;;;;;;15.90;7.43;;;;;;;28.87;53.05;94372.97;4961148;28;20681;-88
2022/06/21 10:58:22;;;;;;;16.15;7.82;;;;;;;29.22;53.23;94367.81;4954723;28;20330;-88
2022/06/21 11:04:11;;;;;;;9.65;8.50;;;;;;;29.78;50.90;94368.53;4962504;28;20207;-82
2022/06/21 11:06:50;;;;;;;12.43;8.38;;;;;;;29.61;49.75;94360.84;4955306;28;20209;-87
2022/06/21 11:09:27;;;;;;;11.13;7.95;;;;;;;29.33;51.10;94368.91;4955645;28;20866;-83
2022/06/21 11:12:52;;;;;;;11.57;8.20;;;;;;;29.07;52.54;94358.63;4963938;28;20236;-87
2022/06/21 11:15:03;;;;;;;13.02;8.38;;;;;;;28.87;52.96;94378.31;4957263;28;20213;-87
2022/06/21 11:17:43;;;;;;;11.32;7.55;;;;;;;28.73;53.77;94353.84;4959720;28;20231;-86
2022/06/21 11:20:22;;;;;;;12.32;8.80;;;;;;;28.84;53.37;94346.09;4961122;28;20295;-88
2022/06/21 11:23:01;;;;;;;10.27;8.20;;;;;;;29.13;53.57;94354.56;4966791;28;20243;-87
2022/06/21 11:25:41;;;;;;;17.70;8.15;;;;;;;29.48;53.52;94373.50;4961261;28;20279;-88
2022/06/21 11:28:23;;;;;;;12.20;8.32;;;;;;;29.80;52.43;94358.25;4960495;28;20216;-87
2022/06/21 11:31:04;;;;;;;13.45;8.77;;;;;;;29.99;50.01;94360.22;4961167;28;20209;-92
2022/06/21 11:33:46;;;;;;;9.02;7.97;;;;;;;30.22;49.42;94363.84;4965608;28;20224;-87
2022/06/21 11:36:28;;;;;;;14.65;8.02;;;;;;;30.45;47.75;94370.16;4962126;28;20672;-86
2022/06/21 11:39:27;;;;;;;14.38;8.60;;;;;;;30.55;47.33;94384.94;4962624;28;20205;-87
2022/06/21 11:42:15;;;;;;;14.65;8.02;;;;;;;30.21;47.50;94362.31;4961346;28;20702;-87
2022/06/21 11:45:29;;;;;;;15.88;8.30;;;;;;;30.40;47.99;94350.88;4962949;28;20291;-86
2022/06/21 11:48:30;;;;;;;9.10;7.72;;;;;;;30.36;48.34;94348.09;4961863;28;20961;-86
2022/06/21 11:51:22;;;;;;;10.32;7.97;;;;;;;30.36;48.66;94366.88;4962728;28;20212;-85
2022/06/21 11:54:09;;;;;;;9.27;7.70;;;;;;;30.56;47.93;94365.81;4959947;28;20252;-87
2022/06/21 11:56:51;;;;;;;15.18;8.88;;;;;;;30.72;47.40;94369.22;4963757;28;20209;-88
2022/06/21 11:59:32;;;;;;;10.00;7.78;;;;;;;30.90;47.27;94366.91;4960478;28;21313;-89
2022/06/21 12:02:11;;;;;;;9.23;7.93;;;;;;;30.53;47.87;94357.69;4953150;28;20264;-88
2022/06/21 12:04:46;;;;;;;9.10;7.63;;;;;;;30.53;47.68;94361.16;4958688;28;20288;-88
2022/06/21 12:07:22;;;;;;;15.52;8.50;;;;;;;30.58;48.23;94357.41;4960856;28;20295;-86
2022/06/21 12:10:00;;;;;;;14.38;7.72;;;;;;;30.78;47.39;94354.38;4963125;28;20201;-86
2022/06/21 12:12:53;;;;;;;15.45;8.18;;;;;;;31.05;46.52;94363.41;4965580;28;20197;-87
2022/06/21 12:15:38;;;;;;;9.77;8.10;;;;;;;31.03;47.16;94344.16;4962983;28;20583;-86
2022/06/21 12:18:15;;;;;;;10.90;7.97;;;;;;;31.14;46.12;94355.13;4962264;28;20648;-87
2022/06/21 12:20:49;;;;;;;10.23;7.55;;;;;;;30.84;46.34;94344.94;4962671;28;20254;-86
2022/06/21 12:23:29;;;;;;;13.50;7.72;;;;;;;30.72;46.09;94357.69;4959550;28;21346;-86
2022/06/21 12:26:09;;;;;;;10.82;7.30;;;;;;;30.69;46.44;94355.72;4965422;28;20209;-87
2022/06/21 12:28:43;;;;;;;12.52;7.95;;;;;;;30.76;46.44;94353.97;4959705;28;20297;-88
2022/06/21 12:31:26;;;;;;;11.20;7.65;;;;;;;30.61;46.30;94336.00;4958265;28;20213;-87
2022/06/21 12:34:08;;;;;;;9.43;8.02;;;;;;;30.52;47.08;94335.44;4959532;28;20247;-86
2022/06/21 12:36:46;;;;;;;9.63;8.38;;;;;;;30.74;47.39;94321.31;4959725;28;20208;-89
2022/06/21 12:39:30;;;;;;;14.45;7.93;;;;;;;31.41;46.66;94346.03;4953998;28;20227;-80
2022/06/21 12:42:30;;;;;;;16.25;8.00;;;;;;;32.21;44.75;94337.03;4958501;28;20213;-89